Main page
METAR-TAF:

METAR-TAF

Airports :

Exeter Airport

Exeter, England

latitude: 50-44N, longitude: 003-25W, elevation: 30 m

Current weather observation

The report was made 38 minutes ago, at 23:20 UTC
Wind 6 kt from the West
Temperature 15°C
Humidity 94%
Pressure 1010 hPa
Visibility 10 km or more
Scattered clouds at a height of 3400 ft

METAR: EGTE 302320Z 26006KT 9999 SCT034 15/14 Q1010

Time: 00:58 (23:58 UTC)

Forecast

The report was made 1 hour and 5 minutes ago, at 22:53 UTC
Forecast valid from 31 at 00 UTC to 31 at 04 UTC
Wind 6 kt from the West
Visibility 10 km or more
Few clouds at a height of 2000 ft
Scattered clouds at a height of 4000 ft
Probability 30% :
Temporary
from 31 at 00 UTC to 31 at 04 UTC
Visibility: 6000 m
Broken clouds at a height of 1200 ft
rain showers

TAF: EGTE 302253Z 3100/3104 26006KT 9999 FEW020 SCT040 PROB30 TEMPO 3100/3104 6000 SHRA BKN012

Weather observations and forecasts of more than 4000 airports (METAR and TAF reports).

The available stations are represented by yellow and red dots on the map.

Hover mouse over dot to see the name of the station.

Then click to see weather observations and forecasts.

To change the map : click on the green buttons with a black cross to zoom in, on the green button with a dash to zoom out, or on the green arrows for adjacent maps.


METAR-TAF: